Benedict, Nebraska
Current Conditions -  °F | °C
As of 5:15 AM on Monday 20 Oct 2014 (Local Time) from KJYR Reporting Station
Clear Clear  
Wind Chill: 42°   Ceiling: Unl
Heat Index: 45°   Visibility: 10mi
Dew Point: 41°   Wind: 5mph
Humidity: 87%   Direction: 310°NW
Pressure: 30.04"   Gusts: NA
Location:  41.01°N, 97.61°W
Report Text: KJYR 201015Z AUTO 31004KT 10SM CLR 07/05 A3004 RMK AO2
Loading
Personal Weather Stations






























Interactive Weather Map
Tropical Storm Tracking
New forecast layout! Learn more

10-Day Weather Forecast

Advertisements
Track Severe Weather on mobile